sensor_id;sensor_type;location;lat;lon;timestamp;P1;durP1;ratioP1;P2;durP2;ratioP2
59207;SDS011;44977;53.132;6.408;2023-04-03T00:02:18;3.17;;;1.20;;
59207;SDS011;44977;53.132;6.408;2023-04-03T00:07:19;6.38;;;1.50;;
59207;SDS011;44977;53.132;6.408;2023-04-03T00:12:20;4.93;;;1.42;;
59207;SDS011;44977;53.132;6.408;2023-04-03T00:17:20;5.40;;;1.20;;
59207;SDS011;44977;53.132;6.408;2023-04-03T00:22:21;4.45;;;1.30;;
59207;SDS011;44977;53.132;6.408;2023-04-03T00:27:22;4.38;;;1.27;;
59207;SDS011;44977;53.132;6.408;2023-04-03T00:32:23;4.00;;;1.40;;
59207;SDS011;44977;53.132;6.408;2023-04-03T00:37:23;3.72;;;1.30;;
59207;SDS011;44977;53.132;6.408;2023-04-03T00:42:24;4.35;;;1.30;;
59207;SDS011;44977;53.132;6.408;2023-04-03T00:47:25;3.90;;;1.30;;
59207;SDS011;44977;53.132;6.408;2023-04-03T00:52:28;4.57;;;1.40;;
59207;SDS011;44977;53.132;6.408;2023-04-03T00:57:30;7.28;;;1.52;;
59207;SDS011;44977;53.132;6.408;2023-04-03T01:02:31;5.53;;;1.40;;
59207;SDS011;44977;53.132;6.408;2023-04-03T01:07:32;4.32;;;1.40;;
59207;SDS011;44977;53.132;6.408;2023-04-03T01:12:38;4.10;;;1.30;;
59207;SDS011;44977;53.132;6.408;2023-04-03T01:17:47;4.90;;;1.50;;
59207;SDS011;44977;53.132;6.408;2023-04-03T01:28:06;7.00;;;1.60;;
59207;SDS011;44977;53.132;6.408;2023-04-03T01:33:10;4.47;;;1.67;;
59207;SDS011;44977;53.132;6.408;2023-04-03T01:38:10;5.05;;;1.60;;
59207;SDS011;44977;53.132;6.408;2023-04-03T01:43:11;5.63;;;1.40;;
59207;SDS011;44977;53.132;6.408;2023-04-03T01:48:12;5.30;;;1.70;;
59207;SDS011;44977;53.132;6.408;2023-04-03T01:53:13;6.57;;;1.70;;
59207;SDS011;44977;53.132;6.408;2023-04-03T01:58:14;6.25;;;2.00;;
59207;SDS011;44977;53.132;6.408;2023-04-03T02:03:15;5.82;;;1.65;;
59207;SDS011;44977;53.132;6.408;2023-04-03T02:08:16;4.70;;;1.67;;
59207;SDS011;44977;53.132;6.408;2023-04-03T02:13:20;6.22;;;1.85;;
59207;SDS011;44977;53.132;6.408;2023-04-03T02:18:20;6.70;;;1.83;;
59207;SDS011;44977;53.132;6.408;2023-04-03T02:23:21;5.18;;;1.90;;
59207;SDS011;44977;53.132;6.408;2023-04-03T02:28:22;8.65;;;2.20;;
59207;SDS011;44977;53.132;6.408;2023-04-03T02:33:22;6.60;;;2.03;;
59207;SDS011;44977;53.132;6.408;2023-04-03T02:38:23;6.05;;;1.85;;
59207;SDS011;44977;53.132;6.408;2023-04-03T02:43:25;8.48;;;2.15;;
59207;SDS011;44977;53.132;6.408;2023-04-03T02:48:26;7.78;;;2.20;;
59207;SDS011;44977;53.132;6.408;2023-04-03T02:53:27;5.90;;;2.13;;
59207;SDS011;44977;53.132;6.408;2023-04-03T02:58:28;7.13;;;2.15;;
59207;SDS011;44977;53.132;6.408;2023-04-03T03:03:29;7.28;;;2.38;;
59207;SDS011;44977;53.132;6.408;2023-04-03T03:08:29;7.13;;;2.38;;
59207;SDS011;44977;53.132;6.408;2023-04-03T03:13:30;7.72;;;2.13;;
59207;SDS011;44977;53.132;6.408;2023-04-03T03:18:31;6.75;;;2.05;;
59207;SDS011;44977;53.132;6.408;2023-04-03T03:23:32;8.00;;;2.30;;
59207;SDS011;44977;53.132;6.408;2023-04-03T03:28:33;6.80;;;2.40;;
59207;SDS011;44977;53.132;6.408;2023-04-03T03:33:36;6.78;;;2.10;;
59207;SDS011;44977;53.132;6.408;2023-04-03T03:38:37;7.20;;;2.40;;
59207;SDS011;44977;53.132;6.408;2023-04-03T03:43:38;6.72;;;2.05;;
59207;SDS011;44977;53.132;6.408;2023-04-03T03:48:39;7.93;;;2.42;;
59207;SDS011;44977;53.132;6.408;2023-04-03T03:53:39;7.97;;;2.10;;
59207;SDS011;44977;53.132;6.408;2023-04-03T03:58:40;6.75;;;2.60;;
59207;SDS011;44977;53.132;6.408;2023-04-03T04:03:41;7.43;;;2.53;;
59207;SDS011;44977;53.132;6.408;2023-04-03T04:08:42;9.05;;;3.25;;
59207;SDS011;44977;53.132;6.408;2023-04-03T04:13:42;8.73;;;2.72;;
59207;SDS011;44977;53.132;6.408;2023-04-03T04:18:43;9.55;;;2.88;;
59207;SDS011;44977;53.132;6.408;2023-04-03T04:23:44;9.35;;;3.00;;
59207;SDS011;44977;53.132;6.408;2023-04-03T04:28:45;8.45;;;2.70;;
59207;SDS011;44977;53.132;6.408;2023-04-03T04:33:45;7.35;;;2.97;;
59207;SDS011;44977;53.132;6.408;2023-04-03T04:38:46;7.95;;;2.75;;
59207;SDS011;44977;53.132;6.408;2023-04-03T04:43:47;10.13;;;3.70;;
59207;SDS011;44977;53.132;6.408;2023-04-03T04:48:50;7.90;;;2.90;;
59207;SDS011;44977;53.132;6.408;2023-04-03T04:53:51;8.38;;;2.92;;
59207;SDS011;44977;53.132;6.408;2023-04-03T04:58:52;9.18;;;2.97;;
59207;SDS011;44977;53.132;6.408;2023-04-03T05:03:52;8.27;;;2.88;;
59207;SDS011;44977;53.132;6.408;2023-04-03T05:08:53;8.52;;;3.10;;
59207;SDS011;44977;53.132;6.408;2023-04-03T05:13:54;7.68;;;2.55;;
59207;SDS011;44977;53.132;6.408;2023-04-03T05:18:54;7.82;;;2.90;;
59207;SDS011;44977;53.132;6.408;2023-04-03T05:23:55;9.70;;;3.28;;
59207;SDS011;44977;53.132;6.408;2023-04-03T05:28:56;8.93;;;3.38;;
59207;SDS011;44977;53.132;6.408;2023-04-03T05:33:57;7.97;;;3.35;;
59207;SDS011;44977;53.132;6.408;2023-04-03T05:38:58;10.02;;;3.35;;
59207;SDS011;44977;53.132;6.408;2023-04-03T05:43:59;8.90;;;3.17;;
59207;SDS011;44977;53.132;6.408;2023-04-03T05:49:00;10.07;;;3.60;;
59207;SDS011;44977;53.132;6.408;2023-04-03T05:54:13;9.82;;;4.07;;
59207;SDS011;44977;53.132;6.408;2023-04-03T05:59:19;9.02;;;3.90;;
59207;SDS011;44977;53.132;6.408;2023-04-03T06:04:21;10.70;;;4.00;;
59207;SDS011;44977;53.132;6.408;2023-04-03T06:09:22;10.85;;;4.10;;
59207;SDS011;44977;53.132;6.408;2023-04-03T06:14:25;10.35;;;4.13;;
59207;SDS011;44977;53.132;6.408;2023-04-03T06:19:26;11.00;;;4.30;;
59207;SDS011;44977;53.132;6.408;2023-04-03T06:24:27;9.45;;;3.78;;
59207;SDS011;44977;53.132;6.408;2023-04-03T06:29:28;9.60;;;3.88;;
59207;SDS011;44977;53.132;6.408;2023-04-03T06:34:29;10.10;;;3.80;;
59207;SDS011;44977;53.132;6.408;2023-04-03T06:39:29;10.07;;;4.30;;
59207;SDS011;44977;53.132;6.408;2023-04-03T06:44:30;11.85;;;4.32;;
59207;SDS011;44977;53.132;6.408;2023-04-03T06:49:31;9.85;;;3.78;;
59207;SDS011;44977;53.132;6.408;2023-04-03T06:54:32;9.73;;;3.67;;
59207;SDS011;44977;53.132;6.408;2023-04-03T06:59:33;11.48;;;3.80;;
59207;SDS011;44977;53.132;6.408;2023-04-03T07:04:34;10.52;;;3.22;;
59207;SDS011;44977;53.132;6.408;2023-04-03T07:09:37;8.52;;;3.38;;
59207;SDS011;44977;53.132;6.408;2023-04-03T07:14:38;9.48;;;3.35;;
59207;SDS011;44977;53.132;6.408;2023-04-03T07:19:38;9.20;;;3.13;;
59207;SDS011;44977;53.132;6.408;2023-04-03T07:24:40;9.25;;;3.40;;
59207;SDS011;44977;53.132;6.408;2023-04-03T07:29:41;8.43;;;2.72;;
59207;SDS011;44977;53.132;6.408;2023-04-03T07:34:42;8.88;;;2.90;;
59207;SDS011;44977;53.132;6.408;2023-04-03T07:39:44;7.72;;;2.70;;
59207;SDS011;44977;53.132;6.408;2023-04-03T07:44:45;8.20;;;2.72;;
59207;SDS011;44977;53.132;6.408;2023-04-03T07:49:45;7.97;;;2.70;;
59207;SDS011;44977;53.132;6.408;2023-04-03T07:54:47;7.53;;;2.50;;
59207;SDS011;44977;53.132;6.408;2023-04-03T07:59:47;5.65;;;2.22;;
59207;SDS011;44977;53.132;6.408;2023-04-03T08:04:48;8.07;;;2.55;;
59207;SDS011;44977;53.132;6.408;2023-04-03T08:09:49;6.72;;;2.17;;
59207;SDS011;44977;53.132;6.408;2023-04-03T08:14:49;5.88;;;2.08;;
59207;SDS011;44977;53.132;6.408;2023-04-03T08:19:50;8.45;;;2.42;;
59207;SDS011;44977;53.132;6.408;2023-04-03T08:24:51;7.80;;;2.28;;
59207;SDS011;44977;53.132;6.408;2023-04-03T08:29:52;6.80;;;2.20;;
59207;SDS011;44977;53.132;6.408;2023-04-03T08:34:53;5.13;;;1.85;;
59207;SDS011;44977;53.132;6.408;2023-04-03T08:39:53;7.65;;;2.17;;
59207;SDS011;44977;53.132;6.408;2023-04-03T08:44:56;7.30;;;2.00;;
59207;SDS011;44977;53.132;6.408;2023-04-03T08:50:02;6.05;;;2.10;;
59207;SDS011;44977;53.132;6.408;2023-04-03T09:00:49;5.07;;;1.50;;
59207;SDS011;44977;53.132;6.408;2023-04-03T09:05:59;6.20;;;1.60;;
59207;SDS011;44977;53.132;6.408;2023-04-03T09:11:09;5.22;;;1.60;;
59207;SDS011;44977;53.132;6.408;2023-04-03T09:16:19;6.10;;;1.90;;
59207;SDS011;44977;53.132;6.408;2023-04-03T09:21:45;4.72;;;1.58;;
59207;SDS011;44977;53.132;6.408;2023-04-03T09:27:01;6.10;;;2.00;;
59207;SDS011;44977;53.132;6.408;2023-04-03T09:32:25;5.75;;;1.60;;
59207;SDS011;44977;53.132;6.408;2023-04-03T09:37:50;5.07;;;1.60;;
59207;SDS011;44977;53.132;6.408;2023-04-03T09:42:54;6.50;;;1.80;;
59207;SDS011;44977;53.132;6.408;2023-04-03T09:48:05;5.03;;;1.63;;
59207;SDS011;44977;53.132;6.408;2023-04-03T09:53:21;5.85;;;1.92;;
59207;SDS011;44977;53.132;6.408;2023-04-03T09:58:38;5.55;;;1.70;;
59207;SDS011;44977;53.132;6.408;2023-04-03T10:03:41;4.72;;;1.40;;
59207;SDS011;44977;53.132;6.408;2023-04-03T10:08:46;4.65;;;1.40;;
59207;SDS011;44977;53.132;6.408;2023-04-03T10:14:01;5.07;;;1.40;;
59207;SDS011;44977;53.132;6.408;2023-04-03T10:24:37;5.60;;;1.35;;
59207;SDS011;44977;53.132;6.408;2023-04-03T10:40:38;5.45;;;1.58;;
59207;SDS011;44977;53.132;6.408;2023-04-03T10:46:34;2.75;;;0.90;;
59207;SDS011;44977;53.132;6.408;2023-04-03T10:51:29;3.50;;;1.30;;
59207;SDS011;44977;53.132;6.408;2023-04-03T10:56:40;2.17;;;1.00;;
59207;SDS011;44977;53.132;6.408;2023-04-03T11:01:45;4.30;;;1.30;;
59207;SDS011;44977;53.132;6.408;2023-04-03T11:06:53;3.75;;;0.98;;
59207;SDS011;44977;53.132;6.408;2023-04-03T11:17:51;3.85;;;1.20;;
59207;SDS011;44977;53.132;6.408;2023-04-03T11:28:13;4.22;;;1.40;;
59207;SDS011;44977;53.132;6.408;2023-04-03T11:33:24;4.60;;;1.10;;
59207;SDS011;44977;53.132;6.408;2023-04-03T11:38:33;4.97;;;1.00;;
59207;SDS011;44977;53.132;6.408;2023-04-03T11:43:55;2.88;;;1.00;;
59207;SDS011;44977;53.132;6.408;2023-04-03T11:48:59;3.95;;;1.20;;
59207;SDS011;44977;53.132;6.408;2023-04-03T11:59:37;5.00;;;1.27;;
59207;SDS011;44977;53.132;6.408;2023-04-03T12:04:38;6.32;;;1.60;;
59207;SDS011;44977;53.132;6.408;2023-04-03T12:14:39;3.42;;;1.20;;
59207;SDS011;44977;53.132;6.408;2023-04-03T12:19:40;3.55;;;1.05;;
59207;SDS011;44977;53.132;6.408;2023-04-03T12:24:44;4.43;;;1.40;;
59207;SDS011;44977;53.132;6.408;2023-04-03T12:29:50;3.78;;;1.40;;
59207;SDS011;44977;53.132;6.408;2023-04-03T12:40:39;7.28;;;1.45;;
59207;SDS011;44977;53.132;6.408;2023-04-03T12:50:46;4.88;;;1.50;;
59207;SDS011;44977;53.132;6.408;2023-04-03T12:55:55;3.85;;;1.40;;
59207;SDS011;44977;53.132;6.408;2023-04-03T13:01:03;4.50;;;1.50;;
59207;SDS011;44977;53.132;6.408;2023-04-03T13:06:19;4.38;;;1.27;;
59207;SDS011;44977;53.132;6.408;2023-04-03T13:11:50;5.78;;;1.38;;
59207;SDS011;44977;53.132;6.408;2023-04-03T13:22:02;3.88;;;1.17;;
59207;SDS011;44977;53.132;6.408;2023-04-03T13:27:06;4.10;;;1.23;;
59207;SDS011;44977;53.132;6.408;2023-04-03T13:32:07;4.03;;;1.50;;
59207;SDS011;44977;53.132;6.408;2023-04-03T13:42:32;5.03;;;1.65;;
59207;SDS011;44977;53.132;6.408;2023-04-03T13:47:41;4.47;;;1.50;;
59207;SDS011;44977;53.132;6.408;2023-04-03T13:52:47;3.50;;;1.27;;
59207;SDS011;44977;53.132;6.408;2023-04-03T14:03:23;3.13;;;1.20;;
59207;SDS011;44977;53.132;6.408;2023-04-03T14:08:26;5.47;;;1.48;;
59207;SDS011;44977;53.132;6.408;2023-04-03T14:13:29;4.78;;;1.25;;
59207;SDS011;44977;53.132;6.408;2023-04-03T14:18:31;3.38;;;1.20;;
59207;SDS011;44977;53.132;6.408;2023-04-03T14:23:31;2.75;;;1.10;;
59207;SDS011;44977;53.132;6.408;2023-04-03T14:28:33;3.95;;;1.20;;
59207;SDS011;44977;53.132;6.408;2023-04-03T14:33:33;4.20;;;1.40;;
59207;SDS011;44977;53.132;6.408;2023-04-03T14:38:34;5.35;;;1.38;;
59207;SDS011;44977;53.132;6.408;2023-04-03T14:43:35;4.03;;;1.30;;
59207;SDS011;44977;53.132;6.408;2023-04-03T14:48:36;5.40;;;1.63;;
59207;SDS011;44977;53.132;6.408;2023-04-03T14:53:37;4.50;;;1.42;;
59207;SDS011;44977;53.132;6.408;2023-04-03T14:58:38;5.25;;;1.65;;
59207;SDS011;44977;53.132;6.408;2023-04-03T15:03:38;4.75;;;1.60;;
59207;SDS011;44977;53.132;6.408;2023-04-03T15:08:39;5.05;;;1.70;;
59207;SDS011;44977;53.132;6.408;2023-04-03T15:13:42;4.18;;;1.30;;
59207;SDS011;44977;53.132;6.408;2023-04-03T15:18:43;3.88;;;1.08;;
59207;SDS011;44977;53.132;6.408;2023-04-03T15:23:44;5.22;;;1.45;;
59207;SDS011;44977;53.132;6.408;2023-04-03T15:28:45;4.85;;;1.55;;
59207;SDS011;44977;53.132;6.408;2023-04-03T15:33:46;2.67;;;1.10;;
59207;SDS011;44977;53.132;6.408;2023-04-03T15:38:47;4.88;;;1.33;;
59207;SDS011;44977;53.132;6.408;2023-04-03T15:43:47;5.20;;;1.55;;
59207;SDS011;44977;53.132;6.408;2023-04-03T15:48:48;3.63;;;1.40;;
59207;SDS011;44977;53.132;6.408;2023-04-03T15:53:49;4.38;;;1.70;;
59207;SDS011;44977;53.132;6.408;2023-04-03T15:58:50;4.18;;;1.73;;
59207;SDS011;44977;53.132;6.408;2023-04-03T16:03:51;8.38;;;4.38;;
59207;SDS011;44977;53.132;6.408;2023-04-03T16:08:51;5.38;;;1.67;;
59207;SDS011;44977;53.132;6.408;2023-04-03T16:13:56;4.05;;;1.70;;
59207;SDS011;44977;53.132;6.408;2023-04-03T16:18:57;3.80;;;1.90;;
59207;SDS011;44977;53.132;6.408;2023-04-03T16:23:58;5.03;;;1.60;;
59207;SDS011;44977;53.132;6.408;2023-04-03T16:29:01;5.00;;;1.42;;
59207;SDS011;44977;53.132;6.408;2023-04-03T16:34:01;5.78;;;1.50;;
59207;SDS011;44977;53.132;6.408;2023-04-03T16:39:03;5.13;;;1.40;;
59207;SDS011;44977;53.132;6.408;2023-04-03T16:44:03;4.15;;;1.40;;
59207;SDS011;44977;53.132;6.408;2023-04-03T16:49:05;3.28;;;1.00;;
59207;SDS011;44977;53.132;6.408;2023-04-03T16:54:05;4.63;;;1.60;;
59207;SDS011;44977;53.132;6.408;2023-04-03T16:59:07;5.30;;;2.13;;
59207;SDS011;44977;53.132;6.408;2023-04-03T17:04:08;5.22;;;1.50;;
59207;SDS011;44977;53.132;6.408;2023-04-03T17:09:08;4.70;;;1.38;;
59207;SDS011;44977;53.132;6.408;2023-04-03T17:14:09;4.45;;;1.80;;
59207;SDS011;44977;53.132;6.408;2023-04-03T17:19:10;4.32;;;1.63;;
59207;SDS011;44977;53.132;6.408;2023-04-03T17:24:11;5.95;;;1.90;;
59207;SDS011;44977;53.132;6.408;2023-04-03T17:29:14;5.90;;;2.08;;
59207;SDS011;44977;53.132;6.408;2023-04-03T17:34:14;5.80;;;1.55;;
59207;SDS011;44977;53.132;6.408;2023-04-03T17:39:15;11.35;;;4.03;;
59207;SDS011;44977;53.132;6.408;2023-04-03T17:44:16;9.95;;;4.68;;
59207;SDS011;44977;53.132;6.408;2023-04-03T17:49:17;5.32;;;1.90;;
59207;SDS011;44977;53.132;6.408;2023-04-03T17:54:19;6.88;;;2.00;;
59207;SDS011;44977;53.132;6.408;2023-04-03T17:59:20;7.45;;;2.25;;
59207;SDS011;44977;53.132;6.408;2023-04-03T18:04:21;5.97;;;1.70;;
59207;SDS011;44977;53.132;6.408;2023-04-03T18:09:23;5.50;;;1.63;;
59207;SDS011;44977;53.132;6.408;2023-04-03T18:14:27;5.38;;;1.60;;
59207;SDS011;44977;53.132;6.408;2023-04-03T18:19:28;4.88;;;1.42;;
59207;SDS011;44977;53.132;6.408;2023-04-03T18:24:32;5.28;;;1.80;;
59207;SDS011;44977;53.132;6.408;2023-04-03T18:29:34;6.15;;;1.70;;
59207;SDS011;44977;53.132;6.408;2023-04-03T18:34:37;10.52;;;2.65;;
59207;SDS011;44977;53.132;6.408;2023-04-03T18:39:38;6.47;;;2.22;;
59207;SDS011;44977;53.132;6.408;2023-04-03T18:44:38;6.50;;;2.38;;
59207;SDS011;44977;53.132;6.408;2023-04-03T18:49:41;8.55;;;3.28;;
59207;SDS011;44977;53.132;6.408;2023-04-03T18:54:42;6.68;;;2.47;;
59207;SDS011;44977;53.132;6.408;2023-04-03T18:59:43;6.82;;;2.30;;
59207;SDS011;44977;53.132;6.408;2023-04-03T19:04:44;5.05;;;2.10;;
59207;SDS011;44977;53.132;6.408;2023-04-03T19:09:45;6.47;;;2.28;;
59207;SDS011;44977;53.132;6.408;2023-04-03T19:14:45;6.45;;;2.25;;
59207;SDS011;44977;53.132;6.408;2023-04-03T19:19:46;6.45;;;2.00;;
59207;SDS011;44977;53.132;6.408;2023-04-03T19:24:47;5.97;;;2.53;;
59207;SDS011;44977;53.132;6.408;2023-04-03T19:29:48;5.80;;;2.08;;
59207;SDS011;44977;53.132;6.408;2023-04-03T19:34:49;7.97;;;2.20;;
59207;SDS011;44977;53.132;6.408;2023-04-03T19:39:50;6.63;;;2.92;;
59207;SDS011;44977;53.132;6.408;2023-04-03T19:44:51;6.00;;;2.40;;
59207;SDS011;44977;53.132;6.408;2023-04-03T19:49:52;5.70;;;2.20;;
59207;SDS011;44977;53.132;6.408;2023-04-03T19:54:52;8.10;;;3.20;;
59207;SDS011;44977;53.132;6.408;2023-04-03T19:59:53;5.43;;;2.50;;
59207;SDS011;44977;53.132;6.408;2023-04-03T20:04:54;5.43;;;2.28;;
59207;SDS011;44977;53.132;6.408;2023-04-03T20:09:54;6.45;;;2.20;;
59207;SDS011;44977;53.132;6.408;2023-04-03T20:14:55;5.63;;;2.22;;
59207;SDS011;44977;53.132;6.408;2023-04-03T20:19:57;7.25;;;2.90;;
59207;SDS011;44977;53.132;6.408;2023-04-03T20:25:00;7.22;;;2.72;;
59207;SDS011;44977;53.132;6.408;2023-04-03T20:30:03;6.88;;;3.00;;
59207;SDS011;44977;53.132;6.408;2023-04-03T20:35:08;6.57;;;2.35;;
59207;SDS011;44977;53.132;6.408;2023-04-03T20:40:09;6.03;;;2.53;;
59207;SDS011;44977;53.132;6.408;2023-04-03T20:45:10;6.85;;;2.47;;
59207;SDS011;44977;53.132;6.408;2023-04-03T20:50:12;5.43;;;2.13;;
59207;SDS011;44977;53.132;6.408;2023-04-03T20:55:14;6.57;;;2.10;;
59207;SDS011;44977;53.132;6.408;2023-04-03T21:00:15;6.25;;;2.03;;
59207;SDS011;44977;53.132;6.408;2023-04-03T21:05:18;6.40;;;2.60;;
59207;SDS011;44977;53.132;6.408;2023-04-03T21:21:01;6.35;;;2.85;;
59207;SDS011;44977;53.132;6.408;2023-04-03T21:26:04;7.90;;;2.50;;
59207;SDS011;44977;53.132;6.408;2023-04-03T21:31:04;7.18;;;2.33;;
59207;SDS011;44977;53.132;6.408;2023-04-03T21:36:05;5.90;;;2.33;;
59207;SDS011;44977;53.132;6.408;2023-04-03T21:41:06;8.07;;;2.63;;
59207;SDS011;44977;53.132;6.408;2023-04-03T21:46:07;7.00;;;2.53;;
59207;SDS011;44977;53.132;6.408;2023-04-03T21:51:08;7.28;;;3.08;;
59207;SDS011;44977;53.132;6.408;2023-04-03T21:56:10;7.05;;;2.72;;
59207;SDS011;44977;53.132;6.408;2023-04-03T22:01:11;6.93;;;2.70;;
59207;SDS011;44977;53.132;6.408;2023-04-03T22:06:13;7.03;;;2.63;;
59207;SDS011;44977;53.132;6.408;2023-04-03T22:11:15;6.93;;;2.83;;
59207;SDS011;44977;53.132;6.408;2023-04-03T22:16:16;8.75;;;2.80;;
59207;SDS011;44977;53.132;6.408;2023-04-03T22:21:16;8.00;;;3.40;;
59207;SDS011;44977;53.132;6.408;2023-04-03T22:26:17;7.32;;;3.50;;
59207;SDS011;44977;53.132;6.408;2023-04-03T22:31:18;7.70;;;3.58;;
59207;SDS011;44977;53.132;6.408;2023-04-03T22:36:19;7.88;;;3.72;;
59207;SDS011;44977;53.132;6.408;2023-04-03T22:41:20;7.28;;;3.63;;
59207;SDS011;44977;53.132;6.408;2023-04-03T22:46:21;7.68;;;3.20;;
59207;SDS011;44977;53.132;6.408;2023-04-03T22:51:22;7.95;;;3.38;;
59207;SDS011;44977;53.132;6.408;2023-04-03T22:56:22;7.13;;;3.45;;
59207;SDS011;44977;53.132;6.408;2023-04-03T23:01:23;7.88;;;3.90;;
59207;SDS011;44977;53.132;6.408;2023-04-03T23:06:24;8.63;;;3.28;;
59207;SDS011;44977;53.132;6.408;2023-04-03T23:11:25;7.03;;;3.38;;
59207;SDS011;44977;53.132;6.408;2023-04-03T23:16:26;7.22;;;3.53;;
59207;SDS011;44977;53.132;6.408;2023-04-03T23:21:27;7.10;;;3.42;;
59207;SDS011;44977;53.132;6.408;2023-04-03T23:26:28;7.07;;;3.42;;
59207;SDS011;44977;53.132;6.408;2023-04-03T23:31:28;7.55;;;3.78;;
59207;SDS011;44977;53.132;6.408;2023-04-03T23:36:29;8.20;;;3.58;;
59207;SDS011;44977;53.132;6.408;2023-04-03T23:41:30;7.53;;;3.58;;
59207;SDS011;44977;53.132;6.408;2023-04-03T23:46:31;9.35;;;4.15;;
59207;SDS011;44977;53.132;6.408;2023-04-03T23:51:31;7.80;;;4.05;;
59207;SDS011;44977;53.132;6.408;2023-04-03T23:56:32;8.18;;;3.60;;
